Terminal Aerodrome Forecast
Issued by NWS

Home | Current Version | Previous Version | Text Only | Print | Product List | Glossary On
Versions: 1 2 3 4 5 6 7 8 9 10 11 12 13 14 15 16 17 18 19 20 21 22 23 24 25 26 27 28 29 30 31 32 33 34 35 36 37 38 39 40 41 42 43 44 45
000
FTUS43 KMKX 222330
TAFUES
TAF
KUES 222330Z 2300/2324 25011KT P6SM VCTS BKN040CB
     FM230200 33011KT P6SM SCT040
     FM230700 02012KT P6SM SCT020 SCT045
     FM231400 02014KT P6SM FEW040 SCT250
     FM231800 02013KT P6SM BKN040=

USA.gov is the U.S. government's official web portal to all federal, state and local government web resources and services.